Time;durP1;ratioP1;P1;durP2;ratioP2;P2;SDS_P1;SDS_P2;PMS_P1;PMS_P2;Temp;Humidity;BMP_temperature;BMP_pressure;BME280_temperature;BME280_humidity;BME280_pressure;Samples;Min_cycle;Max_cycle;Signal;HPM_P1;HPM_P2
2021/09/10 00:01:55;;;;;;;4.80;2.90;;;23.20;99.90;;;;;;4173399;28;20768;-74
2021/09/10 00:04:01;;;;;;;5.25;2.95;;;23.10;99.90;;;;;;4170637;28;20108;-75
2021/09/10 00:06:01;;;;;;;4.57;2.80;;;23.10;99.90;;;;;;4173853;28;20071;-74
2021/09/10 00:08:02;;;;;;;3.20;2.80;;;23.10;99.90;;;;;;4173514;28;20045;-74
2021/09/10 00:10:04;;;;;;;3.05;2.75;;;23.10;99.90;;;;;;4173252;28;20033;-74
2021/09/10 00:12:05;;;;;;;5.28;2.90;;;23.10;99.90;;;;;;4174282;28;20067;-74
2021/09/10 00:14:05;;;;;;;3.25;2.70;;;23.10;99.90;;;;;;4170078;28;20033;-74
2021/09/10 00:16:06;;;;;;;4.00;3.17;;;23.10;99.90;;;;;;4172355;28;20504;-74
2021/09/10 00:18:06;;;;;;;4.07;3.22;;;23.10;99.90;;;;;;4170781;28;20037;-75
2021/09/10 00:20:07;;;;;;;5.00;3.03;;;23.10;99.90;;;;;;4154599;28;20042;-74
2021/09/10 00:22:08;;;;;;;4.32;2.92;;;23.10;99.90;;;;;;4172732;28;20635;-74
2021/09/10 00:24:09;;;;;;;4.68;3.45;;;23.00;99.90;;;;;;4170083;28;20121;-75
2021/09/10 00:26:10;;;;;;;3.95;3.05;;;23.00;99.90;;;;;;4172408;28;20043;-74
2021/09/10 00:28:10;;;;;;;4.03;3.22;;;23.00;99.90;;;;;;4170983;28;20048;-74
2021/09/10 00:30:11;;;;;;;3.83;2.88;;;23.00;99.90;;;;;;4172898;28;20396;-74
2021/09/10 00:32:12;;;;;;;4.93;3.55;;;22.90;99.90;;;;;;4172174;28;20112;-74
2021/09/10 00:34:13;;;;;;;4.22;2.90;;;22.90;99.90;;;;;;4171591;28;20048;-74
2021/09/10 00:36:14;;;;;;;6.13;2.92;;;22.90;99.90;;;;;;4173105;28;20076;-74
2021/09/10 00:38:14;;;;;;;4.38;2.80;;;22.90;99.90;;;;;;4174048;28;20041;-74
2021/09/10 00:40:15;;;;;;;5.70;3.22;;;22.90;99.90;;;;;;4173651;28;20048;-75
2021/09/10 00:42:16;;;;;;;4.90;3.45;;;22.80;99.90;;;;;;4173993;28;20037;-74
2021/09/10 00:44:16;;;;;;;4.60;2.97;;;22.80;99.90;;;;;;4155072;28;20033;-74
2021/09/10 00:46:17;;;;;;;5.57;2.90;;;22.80;99.90;;;;;;4172183;28;20083;-74
2021/09/10 00:48:20;;;;;;;3.55;2.95;;;22.80;99.90;;;;;;4172865;28;20041;-74
2021/09/10 00:50:21;;;;;;;3.33;2.95;;;22.80;99.90;;;;;;4171068;28;20148;-74
2021/09/10 00:52:22;;;;;;;3.40;3.07;;;22.80;99.90;;;;;;4170922;28;20382;-74
2021/09/10 00:54:23;;;;;;;3.88;2.80;;;22.80;99.90;;;;;;4171813;28;20044;-74
2021/09/10 00:56:25;;;;;;;4.00;2.78;;;22.80;99.90;;;;;;4169704;28;20045;-74
2021/09/10 00:58:26;;;;;;;3.70;3.10;;;22.80;99.90;;;;;;4167966;28;20091;-74
2021/09/10 01:00:27;;;;;;;3.70;3.00;;;22.80;99.90;;;;;;4172234;28;20431;-74
2021/09/10 01:02:27;;;;;;;4.53;3.42;;;22.80;99.90;;;;;;4170377;28;20548;-74
2021/09/10 01:04:29;;;;;;;4.35;2.92;;;22.80;99.90;;;;;;4171237;28;20033;-74
2021/09/10 01:06:30;;;;;;;5.90;3.05;;;22.70;99.90;;;;;;4170000;28;20037;-74
2021/09/10 01:08:33;;;;;;;3.83;2.72;;;22.80;99.90;;;;;;4171389;28;20037;-74
2021/09/10 01:10:35;;;;;;;4.53;3.50;;;22.70;99.90;;;;;;4169455;28;20065;-74
2021/09/10 01:12:37;;;;;;;3.58;2.92;;;22.70;99.90;;;;;;4170314;28;21892;-74
2021/09/10 01:14:37;;;;;;;4.10;3.00;;;22.70;99.90;;;;;;4172682;28;20473;-74
2021/09/10 01:16:38;;;;;;;6.43;3.65;;;22.70;99.90;;;;;;4152608;28;20036;-74
2021/09/10 01:18:39;;;;;;;4.65;3.17;;;22.70;99.90;;;;;;4172145;28;20065;-74
2021/09/10 01:20:42;;;;;;;4.18;3.17;;;22.70;99.90;;;;;;4171878;28;20045;-74
2021/09/10 01:22:43;;;;;;;;;;;22.70;99.90;;;;;;4170803;28;20071;-74
2021/09/10 01:25:13;;;;;;;5.78;3.33;;;22.70;99.90;;;;;;4172850;28;19921;-75
2021/09/10 01:27:14;;;;;;;3.70;2.67;;;22.70;99.90;;;;;;4155284;28;20037;-75
2021/09/10 01:29:14;;;;;;;3.95;3.10;;;22.70;99.90;;;;;;4155495;28;20455;-75
2021/09/10 01:31:15;;;;;;;3.75;2.90;;;22.80;99.90;;;;;;4152051;28;20042;-74
2021/09/10 01:33:16;;;;;;;3.80;2.92;;;22.80;99.90;;;;;;4154768;28;20049;-74
2021/09/10 01:35:17;;;;;;;3.70;2.78;;;22.80;99.90;;;;;;4152317;28;20049;-74
2021/09/10 01:37:17;;;;;;;4.45;2.70;;;22.80;99.90;;;;;;4150830;28;20042;-74
2021/09/10 01:39:18;;;;;;;3.70;2.58;;;22.80;99.90;;;;;;4156606;28;20095;-74
2021/09/10 01:41:19;;;;;;;4.53;2.80;;;22.80;99.90;;;;;;4153393;28;20033;-74
2021/09/10 01:43:19;;;;;;;3.47;3.13;;;22.80;99.90;;;;;;4150016;28;20504;-74
2021/09/10 01:45:21;;;;;;;4.85;3.10;;;22.90;99.90;;;;;;4155615;28;20049;-74
2021/09/10 01:47:22;;;;;;;3.40;2.78;;;22.80;99.90;;;;;;4154737;28;20037;-74
2021/09/10 01:49:22;;;;;;;3.47;3.17;;;22.90;99.90;;;;;;4153384;28;20124;-74
2021/09/10 01:51:33;;;;;;;3.70;2.90;;;22.80;99.90;;;;;;4151390;28;20116;-75
2021/09/10 01:53:35;;;;;;;4.00;2.80;;;22.80;99.90;;;;;;4164869;28;20038;-74
2021/09/10 01:55:36;;;;;;;3.22;2.83;;;22.80;99.90;;;;;;4177301;28;20039;-74
2021/09/10 01:57:37;;;;;;;4.97;3.40;;;22.80;99.90;;;;;;4173923;28;20068;-74
2021/09/10 01:59:37;;;;;;;4.22;3.30;;;22.80;99.90;;;;;;4165451;28;20065;-74
2021/09/10 02:01:38;;;;;;;3.35;2.97;;;22.80;99.90;;;;;;4159969;28;20539;-74
2021/09/10 02:03:38;;;;;;;4.45;2.65;;;22.80;99.90;;;;;;4180835;28;20033;-75
2021/09/10 02:05:39;;;;;;;4.75;3.10;;;22.70;99.90;;;;;;4169368;28;20048;-74
2021/09/10 02:07:40;;;;;;;4.25;3.17;;;22.80;99.90;;;;;;4176805;28;20468;-74
2021/09/10 02:09:40;;;;;;;3.20;2.90;;;22.80;99.90;;;;;;4175201;28;20119;-74
2021/09/10 02:11:41;;;;;;;3.38;2.90;;;22.80;99.90;;;;;;4178374;28;20529;-74
2021/09/10 02:13:41;;;;;;;3.72;3.17;;;22.80;99.90;;;;;;4176265;28;20238;-74
2021/09/10 02:15:42;;;;;;;3.15;2.85;;;22.80;99.90;;;;;;4173280;28;22164;-75
2021/09/10 02:17:43;;;;;;;3.15;2.85;;;22.80;99.90;;;;;;4177729;28;20080;-74
2021/09/10 02:19:43;;;;;;;4.10;2.78;;;22.70;99.90;;;;;;4176484;28;20037;-74
2021/09/10 02:21:44;;;;;;;3.28;2.83;;;22.70;99.90;;;;;;4171936;28;20060;-75
2021/09/10 02:23:44;;;;;;;3.78;2.72;;;22.70;99.90;;;;;;4172816;28;20096;-75
2021/09/10 02:25:45;;;;;;;4.80;3.00;;;22.70;99.90;;;;;;4178328;28;20049;-74
2021/09/10 02:27:46;;;;;;;5.55;2.88;;;22.70;99.90;;;;;;4173884;28;20040;-74
2021/09/10 02:29:46;;;;;;;5.93;3.30;;;22.70;99.90;;;;;;4172765;28;20040;-74
2021/09/10 02:31:47;;;;;;;4.20;2.95;;;22.60;99.90;;;;;;4171607;28;20037;-74
2021/09/10 02:33:47;;;;;;;3.25;2.67;;;22.70;99.90;;;;;;4175772;28;20049;-74
2021/09/10 02:35:48;;;;;;;3.72;3.28;;;22.60;99.90;;;;;;4165231;28;20124;-74
2021/09/10 02:37:48;;;;;;;4.45;2.80;;;22.60;99.90;;;;;;4170945;28;20075;-74
2021/09/10 02:39:49;;;;;;;3.80;3.20;;;22.60;99.90;;;;;;4168683;28;20115;-74
2021/09/10 02:41:50;;;;;;;4.35;3.22;;;22.50;99.90;;;;;;4169918;28;20030;-74
2021/09/10 02:43:50;;;;;;;4.60;3.35;;;22.50;99.90;;;;;;4170149;28;20041;-74
2021/09/10 02:45:51;;;;;;;5.45;2.80;;;22.50;99.90;;;;;;4169554;28;20045;-74
2021/09/10 02:47:52;;;;;;;4.10;3.03;;;22.50;99.90;;;;;;4171279;28;20045;-74
2021/09/10 02:49:54;;;;;;;3.78;2.78;;;22.50;99.90;;;;;;4170079;28;20045;-74
2021/09/10 02:51:55;;;;;;;5.22;3.55;;;22.50;99.90;;;;;;4170438;28;20040;-74
2021/09/10 02:53:55;;;;;;;4.15;3.20;;;22.50;99.90;;;;;;4152745;28;20469;-74
2021/09/10 02:55:56;;;;;;;4.60;3.50;;;22.40;99.90;;;;;;4152667;28;20061;-75
2021/09/10 02:57:57;;;;;;;4.05;2.97;;;22.40;99.90;;;;;;4152665;28;20050;-74
2021/09/10 02:59:57;;;;;;;4.13;3.55;;;22.40;99.90;;;;;;4151583;28;20049;-75
2021/09/10 03:01:58;;;;;;;4.60;3.50;;;22.40;99.90;;;;;;4153339;28;20034;-74
2021/09/10 03:03:59;;;;;;;6.47;3.40;;;22.40;99.90;;;;;;4150673;28;20030;-74
2021/09/10 03:05:59;;;;;;;4.88;3.47;;;22.40;99.90;;;;;;4137128;28;20036;-75
2021/09/10 03:08:00;;;;;;;4.50;3.10;;;22.30;99.90;;;;;;4168266;28;20033;-74
2021/09/10 03:10:01;;;;;;;3.95;3.13;;;22.40;99.90;;;;;;4170901;28;20607;-74
2021/09/10 03:12:02;;;;;;;4.53;3.03;;;22.30;99.90;;;;;;4170473;28;20432;-74
2021/09/10 03:14:04;;;;;;;4.53;3.10;;;22.30;99.90;;;;;;4171811;28;20040;-74
2021/09/10 03:16:04;;;;;;;5.40;3.20;;;22.30;99.90;;;;;;4167628;28;20776;-74
2021/09/10 03:18:05;;;;;;;4.03;3.08;;;22.20;99.90;;;;;;4170928;28;20041;-74
2021/09/10 03:20:06;;;;;;;5.03;3.13;;;22.20;99.90;;;;;;4172778;28;20128;-75
2021/09/10 03:22:07;;;;;;;5.25;3.15;;;22.20;99.90;;;;;;4174315;28;20108;-74
2021/09/10 03:24:07;;;;;;;4.97;3.03;;;22.20;99.90;;;;;;4175679;28;20048;-74
2021/09/10 03:26:08;;;;;;;4.80;3.40;;;22.20;99.90;;;;;;4173596;28;20033;-74
2021/09/10 03:28:09;;;;;;;4.13;3.13;;;22.20;99.90;;;;;;4173334;28;20483;-74
2021/09/10 03:30:11;;;;;;;5.95;3.70;;;22.10;99.90;;;;;;4173133;28;20041;-75
2021/09/10 03:32:11;;;;;;;5.43;2.87;;;22.10;99.90;;;;;;4172108;28;20045;-74
2021/09/10 03:34:12;;;;;;;5.60;3.28;;;22.10;99.90;;;;;;4171703;28;20508;-74
2021/09/10 03:36:13;;;;;;;3.85;3.20;;;22.10;99.90;;;;;;4171280;28;20035;-75
2021/09/10 03:38:13;;;;;;;8.48;3.60;;;22.10;99.90;;;;;;4172416;28;20534;-75
2021/09/10 03:40:14;;;;;;;3.85;3.10;;;22.00;99.90;;;;;;4172451;28;20174;-74
2021/09/10 03:42:15;;;;;;;4.53;2.80;;;22.00;99.90;;;;;;4170870;28;20033;-75
2021/09/10 03:44:15;;;;;;;4.57;3.30;;;22.00;99.90;;;;;;4172705;28;20105;-74
2021/09/10 03:46:16;;;;;;;3.97;3.22;;;22.00;99.90;;;;;;4156130;28;20121;-74
2021/09/10 03:48:16;;;;;;;4.03;3.35;;;22.00;99.90;;;;;;4175478;28;20033;-74
2021/09/10 03:50:17;;;;;;;3.40;3.00;;;22.00;99.90;;;;;;4171791;28;20040;-74
2021/09/10 03:52:18;;;;;;;5.15;3.17;;;22.00;99.90;;;;;;4171271;28;20037;-75
2021/09/10 03:54:18;;;;;;;3.80;3.22;;;22.00;99.90;;;;;;4177364;28;20103;-74
2021/09/10 03:56:19;;;;;;;5.20;3.00;;;21.90;99.90;;;;;;4181837;28;20127;-75
2021/09/10 03:58:19;;;;;;;4.13;3.38;;;22.00;99.90;;;;;;4173897;28;21549;-74
2021/09/10 04:00:20;;;;;;;5.15;3.85;;;22.00;99.90;;;;;;4175380;28;20036;-74
2021/09/10 04:02:21;;;;;;;4.60;3.60;;;21.90;99.90;;;;;;4178290;28;20376;-75
2021/09/10 04:04:21;;;;;;;4.45;3.25;;;21.90;99.90;;;;;;4183211;28;20064;-74
2021/09/10 04:06:22;;;;;;;4.78;3.58;;;21.90;99.90;;;;;;4173062;28;20695;-74
2021/09/10 04:08:23;;;;;;;5.25;3.95;;;21.90;99.90;;;;;;4176728;28;20045;-75
2021/09/10 04:10:23;;;;;;;6.22;3.78;;;21.90;99.90;;;;;;4155456;28;20040;-75
2021/09/10 04:12:24;;;;;;;5.50;3.80;;;21.90;99.90;;;;;;4155763;28;20041;-74
2021/09/10 04:14:24;;;;;;;10.63;4.75;;;21.90;99.90;;;;;;4156227;28;20044;-74
2021/09/10 04:16:25;;;;;;;6.82;4.18;;;21.90;99.90;;;;;;4155512;28;21036;-74
2021/09/10 04:18:26;;;;;;;7.28;4.25;;;21.90;99.90;;;;;;4151014;28;20032;-74
2021/09/10 04:20:26;;;;;;;7.15;4.38;;;21.90;99.90;;;;;;4156018;28;20033;-74
2021/09/10 04:22:27;;;;;;;7.43;4.43;;;21.80;99.90;;;;;;4155241;28;20033;-74
2021/09/10 04:24:27;;;;;;;5.18;3.90;;;21.80;99.90;;;;;;4154335;28;20143;-74
2021/09/10 04:26:28;;;;;;;6.43;4.03;;;21.80;99.90;;;;;;4156127;28;20060;-74
2021/09/10 04:28:28;;;;;;;6.55;3.72;;;21.80;99.90;;;;;;4155421;28;20064;-74
2021/09/10 04:30:29;;;;;;;5.55;3.80;;;21.80;99.90;;;;;;4156497;28;20115;-74
2021/09/10 04:32:30;;;;;;;5.30;3.70;;;21.80;99.90;;;;;;4159098;28;20552;-75
2021/09/10 04:34:31;;;;;;;7.95;4.25;;;21.80;99.90;;;;;;4153982;28;20034;-74
2021/09/10 04:36:31;;;;;;;6.10;3.80;;;21.80;99.90;;;;;;4155831;28;20369;-74
2021/09/10 04:38:32;;;;;;;6.88;3.47;;;21.80;99.90;;;;;;4155102;28;20068;-74
2021/09/10 04:40:32;;;;;;;7.10;4.70;;;21.80;99.90;;;;;;4154152;28;20033;-74
2021/09/10 04:42:33;;;;;;;4.90;3.85;;;21.80;99.90;;;;;;4153437;28;20579;-74
2021/09/10 04:44:34;;;;;;;6.18;3.80;;;21.80;99.90;;;;;;4156237;28;20053;-74
2021/09/10 04:46:35;;;;;;;5.10;3.90;;;21.80;99.90;;;;;;4154923;28;20087;-74
2021/09/10 04:48:36;;;;;;;5.57;3.85;;;21.80;99.90;;;;;;4153858;28;20160;-76
2021/09/10 04:50:36;;;;;;;4.25;3.60;;;21.80;99.90;;;;;;4151304;28;20424;-73
2021/09/10 04:52:38;;;;;;;4.53;3.60;;;21.90;99.90;;;;;;4149367;28;20033;-73
2021/09/10 04:54:39;;;;;;;8.48;4.13;;;21.90;99.90;;;;;;4152408;28;20042;-76
2021/09/10 04:56:40;;;;;;;7.18;3.83;;;21.90;99.90;;;;;;4153012;28;20048;-76
2021/09/10 04:58:41;;;;;;;4.45;4.00;;;21.90;99.90;;;;;;4153491;28;20480;-76
2021/09/10 05:00:41;;;;;;;5.47;3.70;;;21.80;99.90;;;;;;4154238;28;20033;-76
2021/09/10 05:02:42;;;;;;;7.97;4.25;;;21.90;99.90;;;;;;4154757;28;20075;-76
2021/09/10 05:04:42;;;;;;;7.90;4.65;;;21.90;99.90;;;;;;4151965;28;20034;-76
2021/09/10 05:06:45;;;;;;;7.57;4.53;;;21.90;99.90;;;;;;4152967;28;20100;-76
2021/09/10 05:08:46;;;;;;;6.55;4.32;;;21.90;99.90;;;;;;4152577;28;21353;-76
2021/09/10 05:10:46;;;;;;;6.25;4.20;;;21.90;99.90;;;;;;4153780;28;20040;-76
2021/09/10 05:12:47;;;;;;;7.07;4.65;;;21.90;99.90;;;;;;4154157;28;20033;-76
2021/09/10 05:14:51;;;;;;;5.80;4.30;;;21.90;99.90;;;;;;4136119;28;20065;-76
2021/09/10 05:16:52;;;;;;;6.40;4.10;;;21.80;99.90;;;;;;4153318;28;20041;-76
2021/09/10 05:18:53;;;;;;;4.75;4.20;;;21.80;99.90;;;;;;4154457;28;20643;-76
2021/09/10 05:20:53;;;;;;;5.47;4.03;;;21.80;99.90;;;;;;4151235;28;20034;-76
2021/09/10 05:22:56;;;;;;;4.32;3.90;;;21.80;99.90;;;;;;4142627;28;20910;-75
2021/09/10 05:24:56;;;;;;;;;;;21.80;99.90;;;;;;4153671;28;20970;-75
2021/09/10 05:26:57;;;;;;;8.45;4.72;;;21.80;99.90;;;;;;4167883;28;19963;-76
2021/09/10 05:28:58;;;;;;;9.80;4.63;;;21.70;99.90;;;;;;4170722;28;20048;-76
2021/09/10 05:30:58;;;;;;;7.63;4.20;;;21.80;99.90;;;;;;4169239;28;20044;-75
2021/09/10 05:32:59;;;;;;;6.63;4.47;;;21.70;99.90;;;;;;4170927;28;20484;-76
2021/09/10 05:34:59;;;;;;;5.82;4.38;;;21.70;99.90;;;;;;4169383;28;20033;-76
2021/09/10 05:37:00;;;;;;;5.85;4.60;;;21.70;99.90;;;;;;4168671;28;20589;-76
2021/09/10 05:39:00;;;;;;;6.32;4.50;;;21.60;99.90;;;;;;4167560;28;20063;-76
2021/09/10 05:41:01;;;;;;;7.10;4.80;;;21.60;99.90;;;;;;4167784;28;20093;-76
2021/09/10 05:43:02;;;;;;;6.78;4.60;;;21.60;99.90;;;;;;4169756;28;20108;-76
2021/09/10 05:45:03;;;;;;;9.13;4.97;;;21.60;99.90;;;;;;4170728;28;20478;-76
2021/09/10 05:47:05;;;;;;;5.00;4.47;;;21.50;99.90;;;;;;4171389;28;20037;-76
2021/09/10 05:49:06;;;;;;;6.28;4.55;;;21.60;99.90;;;;;;4169381;28;20028;-76
2021/09/10 05:51:11;;;;;;;6.35;4.63;;;21.50;99.90;;;;;;4168136;28;20443;-76
2021/09/10 05:53:12;;;;;;;6.78;4.30;;;21.50;99.90;;;;;;4168716;28;20044;-76
2021/09/10 05:55:13;;;;;;;6.32;4.85;;;21.50;99.90;;;;;;4168698;28;20037;-77
2021/09/10 05:57:14;;;;;;;5.93;4.20;;;21.50;99.90;;;;;;4167591;28;20045;-76
2021/09/10 05:59:14;;;;;;;5.80;4.35;;;21.50;99.90;;;;;;4168940;28;20090;-77
2021/09/10 06:01:15;;;;;;;7.72;4.60;;;21.50;99.90;;;;;;4167700;28;20121;-77
2021/09/10 06:03:16;;;;;;;5.13;4.40;;;21.50;99.90;;;;;;4167576;28;20412;-77
2021/09/10 06:05:17;;;;;;;5.97;4.18;;;21.50;99.90;;;;;;4168464;28;20041;-77
2021/09/10 06:07:17;;;;;;;11.75;4.57;;;21.50;99.90;;;;;;4166609;28;20045;-77
2021/09/10 06:09:18;;;;;;;7.15;4.18;;;21.50;99.90;;;;;;4168584;28;20045;-77
2021/09/10 06:11:18;;;;;;;6.75;4.43;;;21.50;99.90;;;;;;4165912;28;20120;-77
2021/09/10 06:13:19;;;;;;;6.43;4.32;;;21.40;99.90;;;;;;4167599;28;20040;-77
2021/09/10 06:15:19;;;;;;;9.45;5.05;;;21.40;99.90;;;;;;4169982;28;20868;-76
2021/09/10 06:17:20;;;;;;;13.43;5.00;;;21.50;99.90;;;;;;4166726;28;20124;-76
2021/09/10 06:19:21;;;;;;;6.68;4.70;;;21.50;99.90;;;;;;4167661;28;20041;-77
2021/09/10 06:21:21;;;;;;;7.50;5.05;;;21.40;99.90;;;;;;4166656;28;20040;-76
2021/09/10 06:23:23;;;;;;;7.13;4.20;;;21.50;99.90;;;;;;4166719;28;20205;-77
2021/09/10 06:25:27;;;;;;;7.93;4.32;;;21.50;99.90;;;;;;4165345;28;20041;-76
2021/09/10 06:27:27;;;;;;;5.63;4.22;;;21.50;99.90;;;;;;4166848;28;20048;-76
2021/09/10 06:29:28;;;;;;;5.75;3.90;;;21.60;99.90;;;;;;4165879;28;20045;-76
2021/09/10 06:31:28;;;;;;;9.13;3.90;;;21.60;99.90;;;;;;4165187;28;20076;-76
2021/09/10 06:33:29;;;;;;;6.60;4.18;;;21.60;99.90;;;;;;4165114;28;20087;-76
2021/09/10 06:35:29;;;;;;;5.43;3.65;;;21.60;99.90;;;;;;4163084;28;20036;-76
2021/09/10 06:37:30;;;;;;;5.10;3.45;;;21.70;99.90;;;;;;4164895;28;20488;-77
2021/09/10 06:39:31;;;;;;;5.22;3.70;;;21.80;99.90;;;;;;4165617;28;20037;-76
2021/09/10 06:41:31;;;;;;;5.30;3.47;;;21.80;99.90;;;;;;4163855;28;20112;-77
2021/09/10 06:43:32;;;;;;;6.70;3.70;;;21.80;99.90;;;;;;4165020;28;20116;-77
2021/09/10 06:45:32;;;;;;;7.45;4.43;;;21.90;99.90;;;;;;4165264;28;20167;-76
2021/09/10 06:47:33;;;;;;;4.72;3.25;;;21.90;99.90;;;;;;4166157;28;20033;-76
2021/09/10 06:49:34;;;;;;;8.85;3.60;;;22.00;99.90;;;;;;4166217;28;20063;-76
2021/09/10 06:51:34;;;;;;;6.40;3.20;;;22.10;99.90;;;;;;4164137;28;20033;-76
2021/09/10 06:53:35;;;;;;;4.95;3.05;;;22.10;99.90;;;;;;4161790;28;20098;-76
2021/09/10 06:55:37;;;;;;;4.63;3.10;;;22.10;99.90;;;;;;4167000;28;20029;-76
2021/09/10 06:57:37;;;;;;;4.72;3.40;;;22.20;99.90;;;;;;4164715;28;20055;-77
2021/09/10 06:59:38;;;;;;;4.32;3.05;;;22.20;99.90;;;;;;4165757;28;20108;-77
2021/09/10 07:01:38;;;;;;;7.03;3.55;;;22.30;99.90;;;;;;4166604;28;20443;-77
2021/09/10 07:03:39;;;;;;;4.05;3.10;;;22.30;99.90;;;;;;4166839;28;20061;-77
2021/09/10 07:05:40;;;;;;;10.75;3.90;;;22.40;99.90;;;;;;4166592;28;20315;-76
2021/09/10 07:07:40;;;;;;;4.70;2.92;;;22.40;99.90;;;;;;4166261;28;20507;-77
2021/09/10 07:09:41;;;;;;;7.30;3.00;;;22.40;99.90;;;;;;4164291;28;20025;-76
2021/09/10 07:11:42;;;;;;;10.77;3.67;;;22.40;99.90;;;;;;4163871;28;20051;-77
2021/09/10 07:13:42;;;;;;;7.22;3.70;;;22.40;99.90;;;;;;4164833;28;20474;-77
2021/09/10 07:15:43;;;;;;;7.43;3.33;;;22.40;99.90;;;;;;4165939;28;20025;-77
2021/09/10 07:17:44;;;;;;;6.80;3.70;;;22.40;99.90;;;;;;4166704;28;20040;-77
2021/09/10 07:19:44;;;;;;;5.40;3.13;;;22.40;99.90;;;;;;4165284;28;20066;-77
2021/09/10 07:21:45;;;;;;;4.13;3.28;;;22.40;99.90;;;;;;4167212;28;20028;-76
2021/09/10 07:23:45;;;;;;;4.82;3.33;;;22.40;99.90;;;;;;4163306;28;20040;-77
2021/09/10 07:25:46;;;;;;;6.38;2.85;;;22.50;99.90;;;;;;4167672;28;20143;-76
2021/09/10 07:27:47;;;;;;;4.03;3.00;;;22.50;99.90;;;;;;4163969;28;20548;-77
2021/09/10 07:29:47;;;;;;;8.00;4.35;;;22.50;99.90;;;;;;4165363;28;20048;-76
2021/09/10 07:31:48;;;;;;;13.25;6.30;;;22.60;99.90;;;;;;4164502;28;20033;-77
2021/09/10 07:33:50;;;;;;;10.13;5.88;;;22.50;99.90;;;;;;4164958;28;20571;-77
2021/09/10 07:35:50;;;;;;;5.32;3.70;;;22.60;99.90;;;;;;4165062;28;20041;-77
2021/09/10 07:37:51;;;;;;;8.77;5.13;;;22.60;99.90;;;;;;4146901;28;20624;-77
2021/09/10 07:39:52;;;;;;;7.72;6.10;;;22.50;99.90;;;;;;4161848;28;20471;-76
2021/09/10 07:41:52;;;;;;;5.18;4.35;;;22.60;99.90;;;;;;4162709;28;20691;-77
2021/09/10 07:43:53;;;;;;;6.72;4.10;;;22.60;99.90;;;;;;4163960;28;20037;-77
2021/09/10 07:45:55;;;;;;;6.80;3.92;;;22.60;99.90;;;;;;4164375;28;20040;-77
2021/09/10 07:47:55;;;;;;;4.53;3.50;;;22.70;99.90;;;;;;4163492;28;21245;-75
2021/09/10 07:49:56;;;;;;;6.68;4.43;;;22.60;99.90;;;;;;4164890;28;20097;-76
2021/09/10 07:51:56;;;;;;;8.32;4.43;;;22.70;99.90;;;;;;4164417;28;20439;-76
2021/09/10 07:53:57;;;;;;;4.72;3.70;;;22.60;99.90;;;;;;4160774;28;20523;-76
2021/09/10 07:55:57;;;;;;;5.38;2.97;;;22.60;99.90;;;;;;4170657;28;20052;-76
2021/09/10 07:57:58;;;;;;;3.22;2.55;;;22.60;99.90;;;;;;4169109;28;20408;-76
2021/09/10 07:59:59;;;;;;;3.70;2.88;;;22.60;99.90;;;;;;4167052;28;20049;-76
2021/09/10 08:01:59;;;;;;;4.20;3.50;;;22.60;99.90;;;;;;4167435;28;20049;-75
2021/09/10 08:04:01;;;;;;;5.00;3.15;;;22.50;99.90;;;;;;4168301;28;20037;-75
2021/09/10 08:06:02;;;;;;;4.80;3.33;;;22.60;99.90;;;;;;4171985;28;20041;-76
2021/09/10 08:08:03;;;;;;;3.80;2.92;;;22.60;99.90;;;;;;4169698;28;20116;-76
2021/09/10 08:10:04;;;;;;;3.78;2.60;;;22.60;99.90;;;;;;4171550;28;20070;-76
2021/09/10 08:12:05;;;;;;;3.92;2.97;;;22.60;99.90;;;;;;4171216;28;20037;-76
2021/09/10 08:14:08;;;;;;;5.07;3.25;;;22.60;99.90;;;;;;4169179;28;20316;-76
2021/09/10 08:16:08;;;;;;;8.05;3.25;;;22.70;99.90;;;;;;4170511;28;20060;-76
2021/09/10 08:18:09;;;;;;;4.05;2.90;;;22.70;99.90;;;;;;4168658;28;20037;-76
2021/09/10 08:20:12;;;;;;;3.58;2.97;;;22.70;99.90;;;;;;4168218;28;20048;-76
2021/09/10 08:22:12;;;;;;;4.65;4.07;;;22.70;99.90;;;;;;4168941;28;20033;-76
2021/09/10 08:24:13;;;;;;;5.28;4.38;;;22.80;99.90;;;;;;4170382;28;20380;-76
2021/09/10 08:26:14;;;;;;;5.55;3.08;;;22.80;99.90;;;;;;4172207;28;20822;-76
2021/09/10 08:28:14;;;;;;;6.65;2.95;;;22.80;99.90;;;;;;4171308;28;20033;-76
2021/09/10 08:30:16;;;;;;;2.97;2.72;;;22.80;99.90;;;;;;4154620;28;20085;-76
2021/09/10 08:32:16;;;;;;;4.05;2.47;;;22.90;99.90;;;;;;4161334;28;20039;-76
2021/09/10 08:34:17;;;;;;;7.10;3.22;;;23.00;99.90;;;;;;4166000;28;20044;-76
2021/09/10 08:36:18;;;;;;;4.10;2.88;;;23.10;99.90;;;;;;4163832;28;20045;-77
2021/09/10 08:38:20;;;;;;;4.90;2.90;;;23.10;99.90;;;;;;4141719;28;20061;-77
2021/09/10 08:40:24;;;;;;;4.50;2.47;;;23.20;99.90;;;;;;4145534;28;20065;-77
2021/09/10 08:42:25;;;;;;;4.95;3.05;;;23.30;99.90;;;;;;4150188;28;20697;-77
2021/09/10 08:44:44;;;;;;;5.95;3.05;;;23.40;99.90;;;;;;4115211;28;20297;-77
2021/09/10 08:46:46;;;;;;;3.13;2.80;;;23.40;99.90;;;;;;4128377;28;20042;-76
2021/09/10 08:48:47;;;;;;;6.03;2.92;;;23.50;99.90;;;;;;4093386;28;20034;-77
2021/09/10 08:50:54;;;;;;;5.93;2.80;;;23.50;99.90;;;;;;4123351;28;20264;-77
2021/09/10 08:52:55;;;;;;;5.72;2.53;;;23.60;99.90;;;;;;4120395;28;20045;-77
2021/09/10 08:54:56;;;;;;;5.35;2.97;;;23.70;99.90;;;;;;4162382;28;20041;-77
2021/09/10 08:56:56;;;;;;;3.60;2.40;;;23.80;99.90;;;;;;4172554;28;20044;-77
2021/09/10 08:59:23;;;;;;;4.15;2.72;;;23.90;99.90;;;;;;4172776;28;20048;-77
2021/09/10 09:01:24;;;;;;;4.10;2.33;;;24.00;99.90;;;;;;4161546;28;20116;-76
2021/09/10 09:03:33;;;;;;;3.08;2.28;;;24.10;99.90;;;;;;4170035;28;20076;-76
2021/09/10 09:05:35;;;;;;;3.25;2.10;;;24.10;99.90;;;;;;4151874;28;20086;-77
2021/09/10 09:07:38;;;;;;;6.20;2.67;;;24.20;99.90;;;;;;4149800;28;20037;-74
2021/09/10 09:09:42;;;;;;;3.60;2.10;;;24.30;99.90;;;;;;4168539;28;20041;-74
2021/09/10 09:11:42;;;;;;;3.22;2.20;;;24.40;99.90;;;;;;4167991;28;20484;-74
2021/09/10 09:13:46;;;;;;;4.53;2.30;;;24.40;99.90;;;;;;4166880;28;20047;-74
2021/09/10 09:15:47;;;;;;;5.63;2.10;;;24.50;99.90;;;;;;4168763;28;20130;-74
2021/09/10 09:17:48;;;;;;;5.25;2.10;;;24.50;99.90;;;;;;4166488;28;20083;-74
2021/09/10 09:20:15;;;;;;;3.97;2.00;;;24.60;99.90;;;;;;4167961;28;20514;-74
2021/09/10 09:22:15;;;;;;;2.00;1.70;;;24.60;99.90;;;;;;4165895;28;20036;-74
2021/09/10 09:24:22;;;;;;;6.80;2.60;;;24.70;99.90;;;;;;4166631;28;20033;-74
2021/09/10 09:26:28;;;;;;;3.00;1.92;;;24.60;99.90;;;;;;4167950;28;21430;-74
2021/09/10 09:28:31;;;;;;;4.65;2.25;;;24.60;99.90;;;;;;4171916;28;20053;-74
2021/09/10 09:30:40;;;;;;;2.80;2.10;;;24.50;99.90;;;;;;4167619;28;20044;-74
2021/09/10 09:32:48;;;;;;;2.97;1.85;;;24.40;99.90;;;;;;4170975;28;20166;-74
2021/09/10 09:34:50;;;;;;;2.50;1.80;;;24.40;99.90;;;;;;4170391;28;20504;-74
2021/09/10 09:36:53;;;;;;;2.58;1.88;;;24.50;99.90;;;;;;4173435;28;20045;-74
2021/09/10 09:38:55;;;;;;;3.63;1.83;;;24.50;99.90;;;;;;4170715;28;20504;-74
2021/09/10 09:41:01;;;;;;;2.80;1.98;;;24.60;99.90;;;;;;4169826;28;20045;-74
2021/09/10 09:43:19;;;;;;;2.60;1.80;;;24.60;99.90;;;;;;4148891;28;20049;-74
2021/09/10 09:45:24;;;;;;;2.90;1.90;;;24.60;99.90;;;;;;4170491;28;20037;-74
2021/09/10 09:47:25;;;;;;;2.47;1.88;;;24.60;99.90;;;;;;4169577;28;20045;-74
2021/09/10 09:49:26;;;;;;;3.67;2.25;;;24.60;99.90;;;;;;4169991;28;20041;-74
2021/09/10 09:51:26;;;;;;;2.67;1.77;;;24.60;99.90;;;;;;4166533;28;20493;-74
2021/09/10 09:53:27;;;;;;;4.18;1.98;;;24.60;99.90;;;;;;4169618;28;20035;-74
2021/09/10 09:55:28;;;;;;;2.97;2.00;;;24.60;99.90;;;;;;4170317;28;20036;-74
2021/09/10 09:57:29;;;;;;;4.70;1.85;;;24.70;99.90;;;;;;4174640;28;20053;-78
2021/09/10 09:59:31;;;;;;;3.83;2.10;;;24.70;99.90;;;;;;4161469;28;20099;-78
2021/09/10 10:01:33;;;;;;;3.65;2.05;;;24.70;99.90;;;;;;4153305;28;20033;-77
2021/09/10 10:03:34;;;;;;;4.68;2.75;;;24.70;99.90;;;;;;4154316;28;20469;-78
2021/09/10 10:05:45;;;;;;;2.40;1.90;;;24.70;99.90;;;;;;4135129;28;20034;-78
2021/09/10 10:07:58;;;;;;;3.00;1.92;;;24.70;99.90;;;;;;4152419;28;20761;-78
2021/09/10 10:10:07;;;;;;;2.60;1.85;;;24.80;99.90;;;;;;4151691;28;20076;-78
2021/09/10 10:12:10;;;;;;;3.67;2.00;;;24.80;99.90;;;;;;4168447;28;20057;-77
2021/09/10 10:14:15;;;;;;;4.57;1.80;;;24.80;99.90;;;;;;4167394;28;20094;-78
2021/09/10 10:16:35;;;;;;;3.58;1.90;;;24.80;99.90;;;;;;4167265;28;20064;-78
2021/09/10 10:18:43;;;;;;;2.60;1.80;;;24.70;99.90;;;;;;4169400;28;20431;-78
2021/09/10 10:20:46;;;;;;;3.40;1.67;;;24.70;99.90;;;;;;4167012;28;20067;-78
2021/09/10 10:22:47;;;;;;;2.67;1.65;;;24.70;99.90;;;;;;4169217;28;20044;-78
2021/09/10 10:24:58;;;;;;;4.13;2.00;;;24.70;99.90;;;;;;4167449;28;20428;-78
2021/09/10 10:27:31;;;;;;;3.30;2.05;;;24.60;99.90;;;;;;4167680;28;20730;-77
2021/09/10 10:29:36;;;;;;;2.38;1.77;;;24.60;99.90;;;;;;4167933;28;20120;-77
2021/09/10 10:31:57;;;;;;;5.05;1.92;;;24.60;99.90;;;;;;4167879;28;20729;-77
2021/09/10 10:34:05;;;;;;;3.25;1.92;;;24.50;99.90;;;;;;4170466;28;20048;-75
2021/09/10 10:36:36;;;;;;;4.22;1.83;;;24.40;99.90;;;;;;4167534;28;20044;-74